createdAt,value
2023-02-08T00:00:23.363Z,-2.67
2023-02-08T00:04:26.508Z,-2.71
2023-02-08T00:08:29.620Z,-2.72
2023-02-08T00:12:32.820Z,-2.72
2023-02-08T00:16:37.301Z,-2.71
2023-02-08T00:20:41.713Z,-2.70
2023-02-08T00:24:44.987Z,-2.66
2023-02-08T00:28:48.040Z,-2.66
2023-02-08T00:32:52.563Z,-2.68
2023-02-08T00:36:55.516Z,-2.70
2023-02-08T00:40:59.416Z,-2.70
2023-02-08T00:45:02.707Z,-2.72
2023-02-08T00:49:07.378Z,-2.73
2023-02-08T00:53:10.637Z,-2.75
2023-02-08T00:57:14.263Z,-2.83
2023-02-08T01:01:17.775Z,-2.73
2023-02-08T01:05:22.482Z,-2.74
2023-02-08T01:09:25.820Z,-2.74
2023-02-08T01:13:29.153Z,-2.75
2023-02-08T01:17:32.328Z,-2.77
2023-02-08T01:21:38.603Z,-2.78
2023-02-08T01:25:42.833Z,-2.81
2023-02-08T01:29:45.872Z,-2.81
2023-02-08T01:33:49.693Z,-2.84
2023-02-08T01:37:54.014Z,-2.85
2023-02-08T01:41:57.176Z,-2.87
2023-02-08T01:46:00.796Z,-2.89
2023-02-08T01:50:04.053Z,-2.89
2023-02-08T01:54:12.219Z,-2.89
2023-02-08T01:58:16.407Z,-2.91
2023-02-08T02:02:22.617Z,-2.91
2023-02-08T02:06:30.182Z,-2.90
2023-02-08T02:10:38.838Z,-2.91
2023-02-08T02:14:44.046Z,-2.90
2023-02-08T02:18:47.245Z,-2.91
2023-02-08T02:23:32.161Z,-2.91
2023-02-08T02:28:04.695Z,-2.90
2023-02-08T02:32:32.069Z,-2.92
2023-02-08T02:36:44.076Z,-2.93
2023-02-08T02:40:54.762Z,-2.93
2023-02-08T02:45:08.604Z,-2.92
2023-02-08T02:49:18.916Z,-2.94
2023-02-08T02:53:28.490Z,-2.97
2023-02-08T02:57:33.867Z,-3.01
2023-02-08T03:01:37.707Z,-3.06
2023-02-08T03:05:42.580Z,-3.06
2023-02-08T03:10:01.491Z,-3.09
2023-02-08T03:14:17.612Z,-3.13
2023-02-08T03:18:31.486Z,-3.17
2023-02-08T03:22:46.603Z,-3.20
2023-02-08T03:26:56.993Z,-3.25
2023-02-08T03:31:06.504Z,-3.29
2023-02-08T03:35:17.091Z,-3.36
2023-02-08T03:39:27.626Z,-3.43
2023-02-08T03:43:35.436Z,-3.48
2023-02-08T03:47:42.169Z,-3.53
2023-02-08T03:51:47.074Z,-3.57
2023-02-08T03:55:56.953Z,-3.60
2023-02-08T04:00:06.897Z,-3.60
2023-02-08T04:04:10.849Z,-3.59
2023-02-08T04:08:15.050Z,-3.57
2023-02-08T04:12:19.749Z,-3.56
2023-02-08T04:16:22.962Z,-3.56
2023-02-08T04:20:26.213Z,-3.57
2023-02-08T04:24:29.483Z,-3.58
2023-02-08T04:28:34.201Z,-3.57
2023-02-08T04:32:37.280Z,-3.58
2023-02-08T04:36:40.731Z,-3.57
2023-02-08T04:40:44.100Z,-3.57
2023-02-08T04:44:48.662Z,-3.56
2023-02-08T04:48:52.053Z,-3.57
2023-02-08T04:52:55.216Z,-3.57
2023-02-08T04:56:59.893Z,-3.58
2023-02-08T05:01:07.737Z,-3.57
2023-02-08T05:05:11.244Z,-3.56
2023-02-08T05:09:15.201Z,-3.57
2023-02-08T05:13:18.770Z,-3.56
2023-02-08T05:17:23.711Z,-3.57
2023-02-08T05:21:26.997Z,-3.57
2023-02-08T05:25:30.381Z,-3.59
2023-02-08T05:29:33.532Z,-3.59
2023-02-08T05:33:38.654Z,-3.59
2023-02-08T05:37:41.843Z,-3.61
2023-02-08T05:41:45.296Z,-3.61
2023-02-08T05:45:49.524Z,-3.61
2023-02-08T05:49:54.346Z,-3.60
2023-02-08T05:53:57.219Z,-3.60
2023-02-08T05:58:00.607Z,-3.61
2023-02-08T06:02:03.719Z,-3.63
2023-02-08T06:06:11.269Z,-3.65
2023-02-08T06:10:14.579Z,-3.67
2023-02-08T06:14:17.901Z,-3.70
2023-02-08T06:18:20.784Z,-3.72
2023-02-08T06:22:26.160Z,-3.75
2023-02-08T06:26:29.206Z,-3.79
2023-02-08T06:30:32.874Z,-3.83
2023-02-08T06:34:35.852Z,-3.85
2023-02-08T06:38:40.608Z,-3.85
2023-02-08T06:42:44.428Z,-3.78
2023-02-08T06:46:47.766Z,-3.72
2023-02-08T06:50:53.977Z,-3.63
2023-02-08T06:54:58.588Z,-3.50
2023-02-08T06:59:01.829Z,-3.37
2023-02-08T07:03:04.830Z,-3.19
2023-02-08T07:07:08.435Z,-3.02
2023-02-08T07:11:15.916Z,-2.85
2023-02-08T07:15:18.940Z,-2.71
2023-02-08T07:19:22.206Z,-2.55
2023-02-08T07:23:25.552Z,-2.37
2023-02-08T07:27:30.607Z,-2.18
2023-02-08T07:31:33.904Z,-1.96
2023-02-08T07:35:37.468Z,-1.76
2023-02-08T07:39:40.610Z,-1.56
2023-02-08T07:43:45.466Z,-1.40
2023-02-08T07:47:49.076Z,-1.35
2023-02-08T07:51:52.480Z,-1.30
2023-02-08T07:55:55.580Z,-1.28
2023-02-08T08:00:00.177Z,-1.26
2023-02-08T08:04:03.589Z,-1.29
2023-02-08T08:08:06.611Z,-1.24
2023-02-08T08:12:09.979Z,-1.20
2023-02-08T08:16:15.076Z,-1.17
2023-02-08T08:20:19.094Z,-1.14
2023-02-08T08:24:22.206Z,-1.09
2023-02-08T08:28:26.096Z,-1.12
2023-02-08T08:32:30.466Z,-0.90
2023-02-08T08:36:34.591Z,-0.76
2023-02-08T08:40:38.698Z,-0.57
2023-02-08T08:44:42.527Z,-0.40
2023-02-08T08:48:48.351Z,-0.17
2023-02-08T08:52:51.628Z,0.01
2023-02-08T08:56:54.555Z,0.17
2023-02-08T09:00:58.792Z,0.27
2023-02-08T09:05:05.507Z,0.57
2023-02-08T09:09:09.028Z,0.82
2023-02-08T09:13:13.213Z,1.14
2023-02-08T09:17:16.627Z,1.46
2023-02-08T09:21:24.744Z,1.73
2023-02-08T09:25:28.469Z,1.87
2023-02-08T09:29:32.971Z,1.88
2023-02-08T09:33:35.849Z,1.93
2023-02-08T09:37:40.421Z,1.93
2023-02-08T09:42:11.739Z,1.88
2023-02-08T09:46:19.788Z,1.82
2023-02-08T09:50:32.693Z,1.84
2023-02-08T09:54:40.652Z,2.11
2023-02-08T09:58:46.361Z,2.39
2023-02-08T10:02:50.587Z,2.79
2023-02-08T10:06:54.176Z,3.12
2023-02-08T10:11:12.240Z,3.39
2023-02-08T10:15:26.148Z,3.65
2023-02-08T10:19:43.789Z,3.90
2023-02-08T10:24:06.863Z,4.12
2023-02-08T10:28:36.184Z,4.38
2023-02-08T10:32:51.708Z,4.56
2023-02-08T10:36:55.378Z,4.70
2023-02-08T10:41:00.912Z,4.84
2023-02-08T10:45:24.241Z,4.97
2023-02-08T10:49:38.429Z,5.14
2023-02-08T10:53:41.933Z,5.31
2023-02-08T10:57:45.791Z,5.45
2023-02-08T11:01:51.333Z,5.63
2023-02-08T11:05:55.336Z,5.72
2023-02-08T11:10:16.506Z,5.84
2023-02-08T11:14:24.188Z,5.81
2023-02-08T11:18:32.140Z,5.92
2023-02-08T11:22:35.800Z,5.97
2023-02-08T11:26:38.940Z,6.07
2023-02-08T11:30:42.344Z,6.20
2023-02-08T11:34:47.762Z,6.30
2023-02-08T11:38:50.870Z,6.33
2023-02-08T11:42:54.805Z,6.37
2023-02-08T11:47:00.723Z,6.40
2023-02-08T11:51:06.048Z,6.43
2023-02-08T11:55:25.855Z,6.51
2023-02-08T11:59:29.819Z,6.57
2023-02-08T12:03:37.811Z,6.55
2023-02-08T12:07:58.402Z,6.62
2023-02-08T12:12:14.567Z,6.66
2023-02-08T12:16:36.225Z,6.69
2023-02-08T12:20:42.457Z,6.77
2023-02-08T12:24:51.975Z,6.84
2023-02-08T12:29:18.922Z,6.95
2023-02-08T12:33:41.459Z,7.02
2023-02-08T12:38:45.028Z,7.08
2023-02-08T12:43:09.085Z,7.05
2023-02-08T12:47:32.608Z,7.08
2023-02-08T12:51:43.873Z,7.11
2023-02-08T12:55:50.037Z,7.12
2023-02-08T12:59:59.316Z,7.18
2023-02-08T13:04:07.835Z,7.15
2023-02-08T13:08:19.919Z,7.14
2023-02-08T13:12:28.404Z,7.11
2023-02-08T13:16:39.393Z,7.06
2023-02-08T13:20:46.414Z,7.05
2023-02-08T13:25:05.002Z,7.06
2023-02-08T13:29:19.193Z,7.05
2023-02-08T13:33:32.815Z,7.05
2023-02-08T13:37:37.263Z,7.00
2023-02-08T13:41:50.304Z,6.95
2023-02-08T13:45:56.511Z,6.89
2023-02-08T13:50:06.167Z,6.82
2023-02-08T13:54:13.682Z,6.78
2023-02-08T13:58:39.807Z,6.75
2023-02-08T14:03:00.060Z,6.76
2023-02-08T14:07:24.628Z,6.75
2023-02-08T14:11:40.803Z,6.76
2023-02-08T14:15:44.201Z,6.72
2023-02-08T14:19:57.350Z,6.68
2023-02-08T14:24:07.519Z,6.68
2023-02-08T14:28:27.199Z,6.67
2023-02-08T14:32:32.677Z,6.68
2023-02-08T14:36:37.440Z,6.66
2023-02-08T14:40:53.292Z,6.63
2023-02-08T14:45:01.345Z,6.59
2023-02-08T14:49:07.025Z,6.51
2023-02-08T14:53:31.169Z,6.44
2023-02-08T14:57:38.152Z,6.35
2023-02-08T15:01:44.375Z,6.25
2023-02-08T15:06:04.979Z,6.11
2023-02-08T15:10:14.387Z,5.99
2023-02-08T15:14:22.567Z,5.89
2023-02-08T15:18:32.560Z,5.79
2023-02-08T15:22:38.396Z,5.67
2023-02-08T15:26:46.082Z,5.58
2023-02-08T15:30:58.193Z,5.45
2023-02-08T15:35:04.020Z,5.34
2023-02-08T15:39:18.119Z,5.20
2023-02-08T15:43:23.353Z,5.07
2023-02-08T15:47:31.894Z,4.94
2023-02-08T15:51:37.742Z,4.81
2023-02-08T15:55:48.455Z,4.66
2023-02-08T15:59:51.898Z,4.50
2023-02-08T16:03:59.892Z,4.33
2023-02-08T16:08:04.839Z,4.14
2023-02-08T16:12:15.401Z,3.97
2023-02-08T16:16:22.086Z,3.80
2023-02-08T16:20:42.191Z,3.63
2023-02-08T16:24:47.243Z,3.48
2023-02-08T16:28:56.322Z,3.35
2023-02-08T16:33:00.100Z,3.21
2023-02-08T16:37:06.478Z,3.09
2023-02-08T16:41:14.986Z,2.99
2023-02-08T16:45:20.598Z,2.90
2023-02-08T16:49:24.382Z,2.80
2023-02-08T16:53:41.458Z,2.72
2023-02-08T16:57:48.318Z,2.64
2023-02-08T17:01:51.600Z,2.55
2023-02-08T17:05:54.882Z,2.49
2023-02-08T17:09:59.749Z,2.42
2023-02-08T17:14:03.191Z,2.35
2023-02-08T17:18:06.333Z,2.29
2023-02-08T17:22:09.453Z,2.24
2023-02-08T17:26:17.813Z,2.20
2023-02-08T17:30:24.380Z,2.13
2023-02-08T17:34:27.999Z,2.08
2023-02-08T17:38:31.051Z,2.03
2023-02-08T17:42:35.628Z,2.00
2023-02-08T17:46:40.458Z,1.95
2023-02-08T17:50:48.125Z,1.91
2023-02-08T17:54:51.198Z,1.88
2023-02-08T17:58:57.000Z,1.85
2023-02-08T18:03:01.090Z,1.82
2023-02-08T18:07:05.056Z,1.80
2023-02-08T18:11:12.897Z,1.78
2023-02-08T18:15:19.852Z,1.73
2023-02-08T18:19:23.846Z,1.68
2023-02-08T18:23:30.974Z,1.64
2023-02-08T18:27:38.233Z,1.59
2023-02-08T18:31:42.965Z,1.56
2023-02-08T18:35:49.929Z,1.51
2023-02-08T18:39:54.560Z,1.46
2023-02-08T18:43:59.394Z,1.43
2023-02-08T18:48:04.251Z,1.40
2023-02-08T18:52:08.108Z,1.37
2023-02-08T18:56:13.622Z,1.32
2023-02-08T19:00:17.655Z,1.28
2023-02-08T19:04:22.285Z,1.25
2023-02-08T19:08:25.381Z,1.21
2023-02-08T19:12:28.291Z,1.16
2023-02-08T19:16:32.945Z,1.13
2023-02-08T19:20:40.365Z,1.09
2023-02-08T19:24:43.769Z,1.05
2023-02-08T19:28:47.290Z,0.99
2023-02-08T19:32:51.116Z,0.98
2023-02-08T19:36:56.423Z,0.95
2023-02-08T19:40:59.653Z,0.92
2023-02-08T19:45:02.595Z,0.89
2023-02-08T19:49:07.400Z,0.85
2023-02-08T19:53:12.290Z,0.82
2023-02-08T19:57:16.233Z,0.78
2023-02-08T20:01:21.277Z,0.77
2023-02-08T20:05:24.452Z,0.73
2023-02-08T20:09:28.857Z,0.73
2023-02-08T20:13:32.287Z,0.68
2023-02-08T20:17:35.413Z,0.67
2023-02-08T20:21:40.268Z,0.64
2023-02-08T20:25:45.354Z,0.62
2023-02-08T20:29:48.908Z,0.60
2023-02-08T20:33:52.967Z,0.56
2023-02-08T20:37:56.483Z,0.52
2023-02-08T20:42:01.322Z,0.50
2023-02-08T20:46:07.398Z,0.49
2023-02-08T20:50:18.754Z,0.46
2023-02-08T20:54:24.577Z,0.44
2023-02-08T20:58:29.176Z,0.43
2023-02-08T21:02:32.706Z,0.42
2023-02-08T21:06:37.732Z,0.40
2023-02-08T21:10:40.917Z,0.38
2023-02-08T21:14:45.357Z,0.37
2023-02-08T21:18:48.731Z,0.34
2023-02-08T21:22:51.936Z,0.32
2023-02-08T21:26:56.943Z,0.33
2023-02-08T21:31:03.469Z,0.34
2023-02-08T21:35:07.989Z,0.33
2023-02-08T21:39:11.829Z,0.32
2023-02-08T21:43:15.094Z,0.32
2023-02-08T21:47:19.746Z,0.34
2023-02-08T21:51:41.329Z,0.35
2023-02-08T21:55:47.615Z,0.35
2023-02-08T21:59:53.110Z,0.31
2023-02-08T22:03:57.555Z,0.31
2023-02-08T22:08:01.007Z,0.29
2023-02-08T22:12:06.341Z,0.31
2023-02-08T22:16:10.647Z,0.31
2023-02-08T22:20:16.740Z,0.31
2023-02-08T22:24:20.044Z,0.29
2023-02-08T22:28:23.571Z,0.28
2023-02-08T22:32:26.824Z,0.24
2023-02-08T22:36:31.474Z,0.21
2023-02-08T22:40:34.907Z,0.16
2023-02-08T22:44:39.078Z,0.19
2023-02-08T22:48:42.533Z,0.09
2023-02-08T22:52:48.887Z,0.14
2023-02-08T22:56:52.452Z,0.22
2023-02-08T23:00:55.351Z,0.27
2023-02-08T23:04:58.782Z,0.24
2023-02-08T23:09:04.538Z,0.27
2023-02-08T23:13:09.110Z,0.27
2023-02-08T23:22:38.101Z,0.20
2023-02-08T23:26:42.684Z,0.15
2023-02-08T23:30:46.890Z,0.12
2023-02-08T23:34:50.380Z,0.11
2023-02-08T23:38:54.083Z,0.12
2023-02-08T23:42:58.720Z,0.12
2023-02-08T23:47:02.239Z,0.12
2023-02-08T23:51:08.129Z,0.10
2023-02-08T23:55:11.346Z,0.07
2023-02-08T23:59:15.830Z,0.01
